sensor_id;sensor_type;location;lat;lon;timestamp;P1;durP1;ratioP1;P2;durP2;ratioP2
31764;SDS011;18338;53.240;8.798;2022-08-02T00:00:10;6.60;;;3.50;;
31764;SDS011;18338;53.240;8.798;2022-08-02T00:02:39;8.02;;;3.30;;
31764;SDS011;18338;53.240;8.798;2022-08-02T00:05:07;4.72;;;3.03;;
31764;SDS011;18338;53.240;8.798;2022-08-02T00:07:34;5.30;;;3.35;;
31764;SDS011;18338;53.240;8.798;2022-08-02T00:10:07;3.33;;;3.03;;
31764;SDS011;18338;53.240;8.798;2022-08-02T00:12:36;5.90;;;3.17;;
31764;SDS011;18338;53.240;8.798;2022-08-02T00:15:05;5.50;;;3.70;;
31764;SDS011;18338;53.240;8.798;2022-08-02T00:17:33;5.28;;;3.75;;
31764;SDS011;18338;53.240;8.798;2022-08-02T00:20:00;8.05;;;3.58;;
31764;SDS011;18338;53.240;8.798;2022-08-02T00:22:27;7.15;;;4.00;;
31764;SDS011;18338;53.240;8.798;2022-08-02T00:24:55;8.40;;;4.50;;
31764;SDS011;18338;53.240;8.798;2022-08-02T00:27:22;4.78;;;3.83;;
31764;SDS011;18338;53.240;8.798;2022-08-02T00:29:49;7.97;;;3.88;;
31764;SDS011;18338;53.240;8.798;2022-08-02T00:32:18;5.65;;;3.95;;
31764;SDS011;18338;53.240;8.798;2022-08-02T00:34:45;10.85;;;4.20;;
31764;SDS011;18338;53.240;8.798;2022-08-02T00:37:13;9.90;;;4.57;;
31764;SDS011;18338;53.240;8.798;2022-08-02T00:39:40;9.50;;;4.10;;
31764;SDS011;18338;53.240;8.798;2022-08-02T00:42:08;6.82;;;4.28;;
31764;SDS011;18338;53.240;8.798;2022-08-02T00:44:36;8.35;;;4.00;;
31764;SDS011;18338;53.240;8.798;2022-08-02T00:47:04;5.85;;;3.75;;
31764;SDS011;18338;53.240;8.798;2022-08-02T00:49:31;8.98;;;3.85;;
31764;SDS011;18338;53.240;8.798;2022-08-02T00:51:58;8.32;;;4.00;;
31764;SDS011;18338;53.240;8.798;2022-08-02T00:54:26;4.72;;;3.53;;
31764;SDS011;18338;53.240;8.798;2022-08-02T00:56:53;8.40;;;4.20;;
31764;SDS011;18338;53.240;8.798;2022-08-02T00:59:21;5.43;;;3.70;;
31764;SDS011;18338;53.240;8.798;2022-08-02T01:01:47;8.55;;;3.53;;
31764;SDS011;18338;53.240;8.798;2022-08-02T01:04:23;6.15;;;3.72;;
31764;SDS011;18338;53.240;8.798;2022-08-02T01:06:57;7.47;;;4.60;;
31764;SDS011;18338;53.240;8.798;2022-08-02T01:09:42;5.82;;;3.90;;
31764;SDS011;18338;53.240;8.798;2022-08-02T01:12:10;7.72;;;4.15;;
31764;SDS011;18338;53.240;8.798;2022-08-02T01:14:42;5.75;;;4.10;;
31764;SDS011;18338;53.240;8.798;2022-08-02T01:17:19;7.63;;;4.53;;
31764;SDS011;18338;53.240;8.798;2022-08-02T01:20:05;7.32;;;4.72;;
31764;SDS011;18338;53.240;8.798;2022-08-02T01:22:37;7.20;;;4.25;;
31764;SDS011;18338;53.240;8.798;2022-08-02T01:25:44;6.22;;;3.78;;
31764;SDS011;18338;53.240;8.798;2022-08-02T01:31:20;7.13;;;3.75;;
31764;SDS011;18338;53.240;8.798;2022-08-02T01:36:34;7.20;;;3.70;;
31764;SDS011;18338;53.240;8.798;2022-08-02T01:39:04;9.85;;;4.18;;
31764;SDS011;18338;53.240;8.798;2022-08-02T01:41:52;7.10;;;4.40;;
31764;SDS011;18338;53.240;8.798;2022-08-02T01:44:24;8.73;;;4.30;;
31764;SDS011;18338;53.240;8.798;2022-08-02T01:46:55;8.60;;;3.75;;
31764;SDS011;18338;53.240;8.798;2022-08-02T01:49:28;5.90;;;3.80;;
31764;SDS011;18338;53.240;8.798;2022-08-02T01:51:59;6.13;;;4.13;;
31764;SDS011;18338;53.240;8.798;2022-08-02T01:54:58;6.57;;;3.83;;
31764;SDS011;18338;53.240;8.798;2022-08-02T01:57:35;5.70;;;3.83;;
31764;SDS011;18338;53.240;8.798;2022-08-02T02:00:08;7.32;;;4.00;;
31764;SDS011;18338;53.240;8.798;2022-08-02T02:02:37;6.22;;;3.75;;
31764;SDS011;18338;53.240;8.798;2022-08-02T02:05:10;4.68;;;3.63;;
31764;SDS011;18338;53.240;8.798;2022-08-02T02:07:38;7.38;;;4.43;;
31764;SDS011;18338;53.240;8.798;2022-08-02T02:10:07;7.97;;;4.05;;
31764;SDS011;18338;53.240;8.798;2022-08-02T02:12:39;8.50;;;4.10;;
31764;SDS011;18338;53.240;8.798;2022-08-02T02:15:09;6.50;;;3.80;;
31764;SDS011;18338;53.240;8.798;2022-08-02T02:17:46;10.10;;;4.57;;
31764;SDS011;18338;53.240;8.798;2022-08-02T02:20:35;6.78;;;4.45;;
31764;SDS011;18338;53.240;8.798;2022-08-02T02:23:01;6.93;;;3.83;;
31764;SDS011;18338;53.240;8.798;2022-08-02T02:25:29;10.15;;;4.47;;
31764;SDS011;18338;53.240;8.798;2022-08-02T02:28:06;6.15;;;4.32;;
31764;SDS011;18338;53.240;8.798;2022-08-02T02:30:36;7.40;;;4.53;;
31764;SDS011;18338;53.240;8.798;2022-08-02T02:33:05;10.40;;;4.57;;
31764;SDS011;18338;53.240;8.798;2022-08-02T02:35:33;10.98;;;4.93;;
31764;SDS011;18338;53.240;8.798;2022-08-02T02:38:03;9.85;;;4.65;;
31764;SDS011;18338;53.240;8.798;2022-08-02T02:40:34;9.73;;;4.72;;
31764;SDS011;18338;53.240;8.798;2022-08-02T02:43:02;7.38;;;4.40;;
31764;SDS011;18338;53.240;8.798;2022-08-02T02:45:31;7.57;;;4.97;;
31764;SDS011;18338;53.240;8.798;2022-08-02T02:47:59;8.93;;;4.20;;
31764;SDS011;18338;53.240;8.798;2022-08-02T02:50:27;7.07;;;4.60;;
31764;SDS011;18338;53.240;8.798;2022-08-02T02:52:55;5.10;;;4.10;;
31764;SDS011;18338;53.240;8.798;2022-08-02T02:55:23;10.10;;;4.68;;
31764;SDS011;18338;53.240;8.798;2022-08-02T02:57:50;8.27;;;4.70;;
31764;SDS011;18338;53.240;8.798;2022-08-02T03:00:17;8.80;;;4.85;;
31764;SDS011;18338;53.240;8.798;2022-08-02T03:03:04;8.40;;;4.65;;
31764;SDS011;18338;53.240;8.798;2022-08-02T03:05:32;9.32;;;4.80;;
31764;SDS011;18338;53.240;8.798;2022-08-02T03:07:58;10.90;;;4.55;;
31764;SDS011;18338;53.240;8.798;2022-08-02T03:10:25;7.97;;;4.68;;
31764;SDS011;18338;53.240;8.798;2022-08-02T03:12:52;8.20;;;4.85;;
31764;SDS011;18338;53.240;8.798;2022-08-02T03:15:20;8.48;;;4.35;;
31764;SDS011;18338;53.240;8.798;2022-08-02T03:17:47;8.38;;;4.47;;
31764;SDS011;18338;53.240;8.798;2022-08-02T03:20:15;9.57;;;4.22;;
31764;SDS011;18338;53.240;8.798;2022-08-02T03:22:43;11.43;;;4.72;;
31764;SDS011;18338;53.240;8.798;2022-08-02T03:25:11;8.85;;;4.65;;
31764;SDS011;18338;53.240;8.798;2022-08-02T03:27:39;7.78;;;4.30;;
31764;SDS011;18338;53.240;8.798;2022-08-02T03:30:06;5.78;;;4.68;;
31764;SDS011;18338;53.240;8.798;2022-08-02T03:32:35;7.53;;;4.43;;
31764;SDS011;18338;53.240;8.798;2022-08-02T03:35:04;6.70;;;4.32;;
31764;SDS011;18338;53.240;8.798;2022-08-02T03:37:33;9.98;;;5.28;;
31764;SDS011;18338;53.240;8.798;2022-08-02T03:40:02;11.60;;;5.15;;
31764;SDS011;18338;53.240;8.798;2022-08-02T03:42:31;10.82;;;4.90;;
31764;SDS011;18338;53.240;8.798;2022-08-02T03:44:59;9.77;;;5.20;;
31764;SDS011;18338;53.240;8.798;2022-08-02T03:47:33;10.55;;;5.53;;
31764;SDS011;18338;53.240;8.798;2022-08-02T03:50:01;8.15;;;4.90;;
31764;SDS011;18338;53.240;8.798;2022-08-02T03:52:27;9.85;;;5.07;;
31764;SDS011;18338;53.240;8.798;2022-08-02T03:54:56;6.68;;;4.53;;
31764;SDS011;18338;53.240;8.798;2022-08-02T03:57:23;9.25;;;5.40;;
31764;SDS011;18338;53.240;8.798;2022-08-02T03:59:50;11.00;;;5.72;;
31764;SDS011;18338;53.240;8.798;2022-08-02T04:02:16;11.27;;;5.88;;
31764;SDS011;18338;53.240;8.798;2022-08-02T04:04:43;9.40;;;5.93;;
31764;SDS011;18338;53.240;8.798;2022-08-02T04:07:09;10.07;;;5.63;;
31764;SDS011;18338;53.240;8.798;2022-08-02T04:09:36;9.48;;;6.35;;
31764;SDS011;18338;53.240;8.798;2022-08-02T04:12:03;9.18;;;5.55;;
31764;SDS011;18338;53.240;8.798;2022-08-02T04:14:30;11.30;;;6.28;;
31764;SDS011;18338;53.240;8.798;2022-08-02T04:17:03;9.32;;;5.95;;
31764;SDS011;18338;53.240;8.798;2022-08-02T04:19:41;8.70;;;5.70;;
31764;SDS011;18338;53.240;8.798;2022-08-02T04:22:15;10.52;;;6.03;;
31764;SDS011;18338;53.240;8.798;2022-08-02T04:24:56;10.77;;;6.78;;
31764;SDS011;18338;53.240;8.798;2022-08-02T04:27:26;12.27;;;7.13;;
31764;SDS011;18338;53.240;8.798;2022-08-02T04:30:15;13.05;;;6.97;;
31764;SDS011;18338;53.240;8.798;2022-08-02T04:32:43;10.20;;;6.30;;
31764;SDS011;18338;53.240;8.798;2022-08-02T04:35:10;12.52;;;6.70;;
31764;SDS011;18338;53.240;8.798;2022-08-02T04:37:45;8.63;;;5.85;;
31764;SDS011;18338;53.240;8.798;2022-08-02T04:40:33;9.60;;;5.43;;
31764;SDS011;18338;53.240;8.798;2022-08-02T04:43:00;7.78;;;5.40;;
31764;SDS011;18338;53.240;8.798;2022-08-02T04:45:26;7.47;;;5.85;;
31764;SDS011;18338;53.240;8.798;2022-08-02T04:47:55;9.23;;;5.57;;
31764;SDS011;18338;53.240;8.798;2022-08-02T04:50:30;9.88;;;6.47;;
31764;SDS011;18338;53.240;8.798;2022-08-02T04:52:57;12.35;;;6.15;;
31764;SDS011;18338;53.240;8.798;2022-08-02T04:55:23;11.35;;;6.90;;
31764;SDS011;18338;53.240;8.798;2022-08-02T04:57:54;9.15;;;6.05;;
31764;SDS011;18338;53.240;8.798;2022-08-02T05:00:21;9.57;;;6.43;;
31764;SDS011;18338;53.240;8.798;2022-08-02T05:02:47;13.77;;;6.90;;
31764;SDS011;18338;53.240;8.798;2022-08-02T05:05:15;10.88;;;6.53;;
31764;SDS011;18338;53.240;8.798;2022-08-02T05:07:42;10.43;;;6.03;;
31764;SDS011;18338;53.240;8.798;2022-08-02T05:10:08;10.57;;;5.95;;
31764;SDS011;18338;53.240;8.798;2022-08-02T05:12:38;12.10;;;6.78;;
31764;SDS011;18338;53.240;8.798;2022-08-02T05:15:06;9.23;;;6.60;;
31764;SDS011;18338;53.240;8.798;2022-08-02T05:17:38;11.40;;;6.93;;
31764;SDS011;18338;53.240;8.798;2022-08-02T05:20:14;10.07;;;6.18;;
31764;SDS011;18338;53.240;8.798;2022-08-02T05:22:41;11.10;;;7.20;;
31764;SDS011;18338;53.240;8.798;2022-08-02T05:25:08;12.63;;;7.70;;
31764;SDS011;18338;53.240;8.798;2022-08-02T05:27:36;13.13;;;8.20;;
31764;SDS011;18338;53.240;8.798;2022-08-02T05:30:03;14.80;;;9.05;;
31764;SDS011;18338;53.240;8.798;2022-08-02T05:32:30;17.77;;;9.55;;
31764;SDS011;18338;53.240;8.798;2022-08-02T05:34:58;17.48;;;9.85;;
31764;SDS011;18338;53.240;8.798;2022-08-02T05:37:26;16.92;;;10.40;;
31764;SDS011;18338;53.240;8.798;2022-08-02T05:39:57;16.30;;;10.23;;
31764;SDS011;18338;53.240;8.798;2022-08-02T05:42:25;15.65;;;9.52;;
31764;SDS011;18338;53.240;8.798;2022-08-02T05:44:53;20.33;;;10.23;;
31764;SDS011;18338;53.240;8.798;2022-08-02T05:47:20;17.50;;;9.05;;
31764;SDS011;18338;53.240;8.798;2022-08-02T05:49:49;12.70;;;8.50;;
31764;SDS011;18338;53.240;8.798;2022-08-02T05:52:16;16.67;;;8.82;;
31764;SDS011;18338;53.240;8.798;2022-08-02T05:54:48;13.25;;;8.00;;
31764;SDS011;18338;53.240;8.798;2022-08-02T06:00:09;11.55;;;7.20;;
31764;SDS011;18338;53.240;8.798;2022-08-02T06:07:40;7.90;;;5.78;;
31764;SDS011;18338;53.240;8.798;2022-08-02T06:10:10;8.50;;;5.57;;
31764;SDS011;18338;53.240;8.798;2022-08-02T06:12:55;9.60;;;5.03;;
31764;SDS011;18338;53.240;8.798;2022-08-02T06:15:29;7.53;;;4.65;;
31764;SDS011;18338;53.240;8.798;2022-08-02T06:17:56;10.18;;;4.75;;
31764;SDS011;18338;53.240;8.798;2022-08-02T06:20:23;8.05;;;4.45;;
31764;SDS011;18338;53.240;8.798;2022-08-02T06:22:52;10.43;;;4.63;;
31764;SDS011;18338;53.240;8.798;2022-08-02T06:25:23;7.32;;;4.30;;
31764;SDS011;18338;53.240;8.798;2022-08-02T06:28:10;7.10;;;4.28;;
31764;SDS011;18338;53.240;8.798;2022-08-02T06:30:42;6.55;;;4.18;;
31764;SDS011;18338;53.240;8.798;2022-08-02T06:33:10;10.30;;;4.28;;
31764;SDS011;18338;53.240;8.798;2022-08-02T06:35:45;10.02;;;4.72;;
31764;SDS011;18338;53.240;8.798;2022-08-02T06:38:31;9.60;;;4.00;;
31764;SDS011;18338;53.240;8.798;2022-08-02T06:41:07;7.07;;;4.03;;
31764;SDS011;18338;53.240;8.798;2022-08-02T06:46:45;8.25;;;4.43;;
31764;SDS011;18338;53.240;8.798;2022-08-02T06:49:32;7.25;;;4.50;;
31764;SDS011;18338;53.240;8.798;2022-08-02T06:52:20;8.48;;;4.65;;
31764;SDS011;18338;53.240;8.798;2022-08-02T06:54:54;6.18;;;4.85;;
31764;SDS011;18338;53.240;8.798;2022-08-02T06:57:25;8.68;;;4.32;;
31764;SDS011;18338;53.240;8.798;2022-08-02T06:59:56;8.02;;;4.30;;
31764;SDS011;18338;53.240;8.798;2022-08-02T07:02:23;6.97;;;4.10;;
31764;SDS011;18338;53.240;8.798;2022-08-02T07:04:50;6.45;;;3.95;;
31764;SDS011;18338;53.240;8.798;2022-08-02T07:07:17;8.27;;;3.72;;
31764;SDS011;18338;53.240;8.798;2022-08-02T07:09:46;7.47;;;3.70;;
31764;SDS011;18338;53.240;8.798;2022-08-02T07:12:25;5.82;;;3.03;;
31764;SDS011;18338;53.240;8.798;2022-08-02T07:14:52;6.90;;;3.97;;
31764;SDS011;18338;53.240;8.798;2022-08-02T07:17:19;6.10;;;3.88;;
31764;SDS011;18338;53.240;8.798;2022-08-02T07:19:46;9.52;;;4.15;;
31764;SDS011;18338;53.240;8.798;2022-08-02T07:22:13;9.48;;;3.65;;
31764;SDS011;18338;53.240;8.798;2022-08-02T07:24:40;6.28;;;4.13;;
31764;SDS011;18338;53.240;8.798;2022-08-02T07:27:07;7.55;;;3.40;;
31764;SDS011;18338;53.240;8.798;2022-08-02T07:29:38;12.43;;;3.60;;
31764;SDS011;18338;53.240;8.798;2022-08-02T07:32:22;6.75;;;3.10;;
31764;SDS011;18338;53.240;8.798;2022-08-02T07:34:51;9.48;;;3.08;;
31764;SDS011;18338;53.240;8.798;2022-08-02T07:37:21;7.90;;;3.33;;
31764;SDS011;18338;53.240;8.798;2022-08-02T07:40:09;8.40;;;3.10;;
31764;SDS011;18338;53.240;8.798;2022-08-02T07:42:41;6.00;;;3.13;;
31764;SDS011;18338;53.240;8.798;2022-08-02T07:45:09;6.53;;;3.03;;
31764;SDS011;18338;53.240;8.798;2022-08-02T07:47:37;5.35;;;2.70;;
31764;SDS011;18338;53.240;8.798;2022-08-02T07:50:04;5.32;;;2.30;;
31764;SDS011;18338;53.240;8.798;2022-08-02T07:52:32;5.45;;;2.30;;
31764;SDS011;18338;53.240;8.798;2022-08-02T07:54:58;4.35;;;2.58;;
31764;SDS011;18338;53.240;8.798;2022-08-02T07:57:25;7.97;;;2.72;;
31764;SDS011;18338;53.240;8.798;2022-08-02T07:59:52;4.57;;;2.33;;
31764;SDS011;18338;53.240;8.798;2022-08-02T08:02:19;6.47;;;2.45;;
31764;SDS011;18338;53.240;8.798;2022-08-02T08:04:45;6.38;;;2.30;;
31764;SDS011;18338;53.240;8.798;2022-08-02T08:07:12;9.85;;;2.38;;
31764;SDS011;18338;53.240;8.798;2022-08-02T08:09:39;4.55;;;2.17;;
31764;SDS011;18338;53.240;8.798;2022-08-02T08:12:07;5.28;;;2.03;;
31764;SDS011;18338;53.240;8.798;2022-08-02T08:14:35;6.03;;;2.50;;
31764;SDS011;18338;53.240;8.798;2022-08-02T08:17:03;5.15;;;2.42;;
31764;SDS011;18338;53.240;8.798;2022-08-02T08:19:31;4.95;;;1.85;;
31764;SDS011;18338;53.240;8.798;2022-08-02T08:22:16;5.50;;;2.10;;
31764;SDS011;18338;53.240;8.798;2022-08-02T08:24:47;6.55;;;2.08;;
31764;SDS011;18338;53.240;8.798;2022-08-02T08:27:14;5.00;;;2.20;;
31764;SDS011;18338;53.240;8.798;2022-08-02T08:29:42;2.95;;;1.50;;
31764;SDS011;18338;53.240;8.798;2022-08-02T08:32:09;4.63;;;1.60;;
31764;SDS011;18338;53.240;8.798;2022-08-02T08:34:43;3.90;;;1.45;;
31764;SDS011;18338;53.240;8.798;2022-08-02T08:37:13;4.10;;;1.50;;
31764;SDS011;18338;53.240;8.798;2022-08-02T08:39:43;3.85;;;1.35;;
31764;SDS011;18338;53.240;8.798;2022-08-02T08:42:22;4.10;;;1.52;;
31764;SDS011;18338;53.240;8.798;2022-08-02T08:44:49;3.53;;;1.38;;
31764;SDS011;18338;53.240;8.798;2022-08-02T08:47:16;7.15;;;1.90;;
31764;SDS011;18338;53.240;8.798;2022-08-02T08:49:46;4.75;;;1.25;;
31764;SDS011;18338;53.240;8.798;2022-08-02T08:52:18;3.38;;;1.30;;
31764;SDS011;18338;53.240;8.798;2022-08-02T08:54:48;5.18;;;1.30;;
31764;SDS011;18338;53.240;8.798;2022-08-02T08:57:15;4.70;;;1.73;;
31764;SDS011;18338;53.240;8.798;2022-08-02T08:59:45;4.15;;;1.63;;
31764;SDS011;18338;53.240;8.798;2022-08-02T09:02:12;5.07;;;1.30;;
31764;SDS011;18338;53.240;8.798;2022-08-02T09:04:47;4.15;;;1.13;;
31764;SDS011;18338;53.240;8.798;2022-08-02T09:07:20;4.50;;;1.67;;
31764;SDS011;18338;53.240;8.798;2022-08-02T09:09:50;5.97;;;1.42;;
31764;SDS011;18338;53.240;8.798;2022-08-02T09:12:17;3.55;;;1.63;;
31764;SDS011;18338;53.240;8.798;2022-08-02T09:14:47;5.07;;;1.70;;
31764;SDS011;18338;53.240;8.798;2022-08-02T09:17:16;4.07;;;1.35;;
31764;SDS011;18338;53.240;8.798;2022-08-02T09:19:43;2.42;;;1.23;;
31764;SDS011;18338;53.240;8.798;2022-08-02T09:22:11;5.07;;;1.02;;
31764;SDS011;18338;53.240;8.798;2022-08-02T09:27:13;3.67;;;1.20;;
31764;SDS011;18338;53.240;8.798;2022-08-02T09:29:44;5.80;;;1.45;;
31764;SDS011;18338;53.240;8.798;2022-08-02T09:32:33;2.60;;;1.05;;
31764;SDS011;18338;53.240;8.798;2022-08-02T09:35:10;2.92;;;1.40;;
31764;SDS011;18338;53.240;8.798;2022-08-02T09:37:37;6.10;;;1.20;;
31764;SDS011;18338;53.240;8.798;2022-08-02T09:40:04;3.90;;;1.50;;
31764;SDS011;18338;53.240;8.798;2022-08-02T09:42:35;2.47;;;1.08;;
31764;SDS011;18338;53.240;8.798;2022-08-02T09:45:02;2.05;;;0.90;;
31764;SDS011;18338;53.240;8.798;2022-08-02T09:47:29;2.03;;;1.02;;
31764;SDS011;18338;53.240;8.798;2022-08-02T09:49:56;5.07;;;1.10;;
31764;SDS011;18338;53.240;8.798;2022-08-02T09:52:30;4.47;;;1.52;;
31764;SDS011;18338;53.240;8.798;2022-08-02T09:55:09;2.47;;;1.20;;
31764;SDS011;18338;53.240;8.798;2022-08-02T09:57:36;3.97;;;1.15;;
31764;SDS011;18338;53.240;8.798;2022-08-02T10:00:07;3.50;;;1.20;;
31764;SDS011;18338;53.240;8.798;2022-08-02T10:05:49;4.80;;;1.35;;
31764;SDS011;18338;53.240;8.798;2022-08-02T10:08:21;2.03;;;1.25;;
31764;SDS011;18338;53.240;8.798;2022-08-02T10:10:48;3.03;;;1.00;;
31764;SDS011;18338;53.240;8.798;2022-08-02T10:13:29;3.85;;;1.20;;
31764;SDS011;18338;53.240;8.798;2022-08-02T10:15:57;5.38;;;1.63;;
31764;SDS011;18338;53.240;8.798;2022-08-02T10:18:24;3.70;;;1.38;;
31764;SDS011;18338;53.240;8.798;2022-08-02T10:21:05;4.13;;;1.20;;
31764;SDS011;18338;53.240;8.798;2022-08-02T10:23:37;4.03;;;1.40;;
31764;SDS011;18338;53.240;8.798;2022-08-02T10:26:05;3.47;;;1.00;;
31764;SDS011;18338;53.240;8.798;2022-08-02T10:28:33;3.83;;;1.50;;
31764;SDS011;18338;53.240;8.798;2022-08-02T10:31:03;3.97;;;1.38;;
31764;SDS011;18338;53.240;8.798;2022-08-02T10:33:31;2.97;;;1.27;;
31764;SDS011;18338;53.240;8.798;2022-08-02T10:36:00;2.30;;;0.93;;
31764;SDS011;18338;53.240;8.798;2022-08-02T10:38:32;6.47;;;1.40;;
31764;SDS011;18338;53.240;8.798;2022-08-02T10:40:59;3.70;;;1.30;;
31764;SDS011;18338;53.240;8.798;2022-08-02T10:46:20;3.72;;;1.20;;
31764;SDS011;18338;53.240;8.798;2022-08-02T10:49:02;2.72;;;1.20;;
31764;SDS011;18338;53.240;8.798;2022-08-02T10:54:27;1.38;;;1.00;;
31764;SDS011;18338;53.240;8.798;2022-08-02T10:56:58;2.92;;;1.20;;
31764;SDS011;18338;53.240;8.798;2022-08-02T10:59:27;2.15;;;1.13;;
31764;SDS011;18338;53.240;8.798;2022-08-02T11:02:02;2.90;;;1.30;;
31764;SDS011;18338;53.240;8.798;2022-08-02T11:04:32;3.05;;;1.30;;
31764;SDS011;18338;53.240;8.798;2022-08-02T11:07:19;3.78;;;1.73;;
31764;SDS011;18338;53.240;8.798;2022-08-02T11:09:56;1.77;;;0.85;;
31764;SDS011;18338;53.240;8.798;2022-08-02T11:12:24;4.07;;;1.17;;
31764;SDS011;18338;53.240;8.798;2022-08-02T11:15:00;1.73;;;1.27;;
31764;SDS011;18338;53.240;8.798;2022-08-02T11:17:50;3.33;;;1.10;;
31764;SDS011;18338;53.240;8.798;2022-08-02T11:20:18;2.92;;;1.02;;
31764;SDS011;18338;53.240;8.798;2022-08-02T11:22:47;3.05;;;1.23;;
31764;SDS011;18338;53.240;8.798;2022-08-02T11:27:48;1.33;;;1.08;;
31764;SDS011;18338;53.240;8.798;2022-08-02T11:30:15;3.25;;;1.08;;
31764;SDS011;18338;53.240;8.798;2022-08-02T11:32:42;3.58;;;1.30;;
31764;SDS011;18338;53.240;8.798;2022-08-02T11:35:09;2.55;;;1.10;;
31764;SDS011;18338;53.240;8.798;2022-08-02T11:37:37;1.65;;;0.80;;
31764;SDS011;18338;53.240;8.798;2022-08-02T11:40:13;2.15;;;1.08;;
31764;SDS011;18338;53.240;8.798;2022-08-02T11:42:45;2.28;;;1.02;;
31764;SDS011;18338;53.240;8.798;2022-08-02T11:45:16;2.30;;;1.08;;
31764;SDS011;18338;53.240;8.798;2022-08-02T11:47:47;2.70;;;1.23;;
31764;SDS011;18338;53.240;8.798;2022-08-02T11:50:17;2.10;;;1.10;;
31764;SDS011;18338;53.240;8.798;2022-08-02T11:52:55;2.42;;;1.30;;
31764;SDS011;18338;53.240;8.798;2022-08-02T11:55:25;2.17;;;1.13;;
31764;SDS011;18338;53.240;8.798;2022-08-02T11:58:00;2.15;;;1.10;;
31764;SDS011;18338;53.240;8.798;2022-08-02T12:00:31;2.88;;;1.27;;
31764;SDS011;18338;53.240;8.798;2022-08-02T12:02:58;3.47;;;1.20;;
31764;SDS011;18338;53.240;8.798;2022-08-02T12:05:25;3.28;;;1.10;;
31764;SDS011;18338;53.240;8.798;2022-08-02T12:08:12;2.15;;;1.17;;
31764;SDS011;18338;53.240;8.798;2022-08-02T12:10:45;3.05;;;1.10;;
31764;SDS011;18338;53.240;8.798;2022-08-02T12:13:13;2.58;;;1.20;;
31764;SDS011;18338;53.240;8.798;2022-08-02T12:15:41;3.38;;;1.10;;
31764;SDS011;18338;53.240;8.798;2022-08-02T12:20:57;3.28;;;1.27;;
31764;SDS011;18338;53.240;8.798;2022-08-02T12:23:24;1.40;;;1.02;;
31764;SDS011;18338;53.240;8.798;2022-08-02T12:25:58;3.20;;;1.17;;
31764;SDS011;18338;53.240;8.798;2022-08-02T12:28:31;2.97;;;1.40;;
31764;SDS011;18338;53.240;8.798;2022-08-02T12:30:59;1.70;;;1.25;;
31764;SDS011;18338;53.240;8.798;2022-08-02T12:33:27;2.38;;;1.38;;
31764;SDS011;18338;53.240;8.798;2022-08-02T12:36:18;2.40;;;1.23;;
31764;SDS011;18338;53.240;8.798;2022-08-02T12:38:53;2.58;;;1.02;;
31764;SDS011;18338;53.240;8.798;2022-08-02T12:41:25;1.85;;;1.00;;
31764;SDS011;18338;53.240;8.798;2022-08-02T12:43:57;2.15;;;0.90;;
31764;SDS011;18338;53.240;8.798;2022-08-02T12:46:25;3.78;;;1.60;;
31764;SDS011;18338;53.240;8.798;2022-08-02T12:48:52;3.38;;;1.50;;
31764;SDS011;18338;53.240;8.798;2022-08-02T12:51:38;1.52;;;1.23;;
31764;SDS011;18338;53.240;8.798;2022-08-02T12:54:23;3.13;;;1.30;;
31764;SDS011;18338;53.240;8.798;2022-08-02T12:57:08;3.88;;;1.60;;
31764;SDS011;18338;53.240;8.798;2022-08-02T12:59:40;1.85;;;1.52;;
31764;SDS011;18338;53.240;8.798;2022-08-02T13:02:09;4.13;;;1.70;;
31764;SDS011;18338;53.240;8.798;2022-08-02T13:04:38;2.72;;;1.70;;
31764;SDS011;18338;53.240;8.798;2022-08-02T13:07:06;2.97;;;1.42;;
31764;SDS011;18338;53.240;8.798;2022-08-02T13:09:34;2.85;;;1.58;;
31764;SDS011;18338;53.240;8.798;2022-08-02T13:12:03;2.38;;;1.30;;
31764;SDS011;18338;53.240;8.798;2022-08-02T13:14:31;3.30;;;1.45;;
31764;SDS011;18338;53.240;8.798;2022-08-02T13:17:05;4.03;;;1.60;;
31764;SDS011;18338;53.240;8.798;2022-08-02T13:19:33;3.63;;;1.48;;
31764;SDS011;18338;53.240;8.798;2022-08-02T13:21:59;4.43;;;1.60;;
31764;SDS011;18338;53.240;8.798;2022-08-02T13:24:29;1.88;;;1.38;;
31764;SDS011;18338;53.240;8.798;2022-08-02T13:27:17;4.00;;;1.80;;
31764;SDS011;18338;53.240;8.798;2022-08-02T13:29:46;2.50;;;1.70;;
31764;SDS011;18338;53.240;8.798;2022-08-02T13:32:14;4.28;;;2.17;;
31764;SDS011;18338;53.240;8.798;2022-08-02T13:34:41;2.47;;;1.88;;
31764;SDS011;18338;53.240;8.798;2022-08-02T13:37:08;2.85;;;1.35;;
31764;SDS011;18338;53.240;8.798;2022-08-02T13:39:35;2.00;;;1.63;;
31764;SDS011;18338;53.240;8.798;2022-08-02T13:42:02;2.67;;;1.42;;
31764;SDS011;18338;53.240;8.798;2022-08-02T13:44:31;3.00;;;1.50;;
31764;SDS011;18338;53.240;8.798;2022-08-02T13:46:57;4.22;;;2.20;;
31764;SDS011;18338;53.240;8.798;2022-08-02T13:49:24;2.08;;;1.60;;
31764;SDS011;18338;53.240;8.798;2022-08-02T13:52:11;2.70;;;1.65;;
31764;SDS011;18338;53.240;8.798;2022-08-02T13:54:39;4.47;;;1.65;;
31764;SDS011;18338;53.240;8.798;2022-08-02T13:57:05;4.43;;;1.80;;
31764;SDS011;18338;53.240;8.798;2022-08-02T13:59:32;6.03;;;1.80;;
31764;SDS011;18338;53.240;8.798;2022-08-02T14:02:19;1.88;;;1.45;;
31764;SDS011;18338;53.240;8.798;2022-08-02T14:04:45;4.35;;;1.58;;
31764;SDS011;18338;53.240;8.798;2022-08-02T14:07:12;2.13;;;1.40;;
31764;SDS011;18338;53.240;8.798;2022-08-02T14:09:39;2.60;;;1.40;;
31764;SDS011;18338;53.240;8.798;2022-08-02T14:12:06;3.60;;;1.55;;
31764;SDS011;18338;53.240;8.798;2022-08-02T14:14:34;2.22;;;1.55;;
31764;SDS011;18338;53.240;8.798;2022-08-02T14:17:01;2.58;;;1.35;;
31764;SDS011;18338;53.240;8.798;2022-08-02T14:19:28;6.22;;;1.45;;
31764;SDS011;18338;53.240;8.798;2022-08-02T14:21:54;1.65;;;1.55;;
31764;SDS011;18338;53.240;8.798;2022-08-02T14:24:37;3.08;;;1.60;;
31764;SDS011;18338;53.240;8.798;2022-08-02T14:27:05;3.38;;;1.90;;
31764;SDS011;18338;53.240;8.798;2022-08-02T14:29:32;2.55;;;1.60;;
31764;SDS011;18338;53.240;8.798;2022-08-02T14:31:58;2.35;;;1.58;;
31764;SDS011;18338;53.240;8.798;2022-08-02T14:34:26;2.42;;;1.70;;
31764;SDS011;18338;53.240;8.798;2022-08-02T14:36:54;2.97;;;1.85;;
31764;SDS011;18338;53.240;8.798;2022-08-02T14:39:21;2.83;;;1.65;;
31764;SDS011;18338;53.240;8.798;2022-08-02T14:41:48;2.08;;;1.73;;
31764;SDS011;18338;53.240;8.798;2022-08-02T14:44:25;3.65;;;1.80;;
31764;SDS011;18338;53.240;8.798;2022-08-02T14:46:52;2.20;;;1.75;;
31764;SDS011;18338;53.240;8.798;2022-08-02T14:49:20;6.05;;;3.25;;
31764;SDS011;18338;53.240;8.798;2022-08-02T14:51:52;3.67;;;1.90;;
31764;SDS011;18338;53.240;8.798;2022-08-02T14:54:19;2.42;;;1.63;;
31764;SDS011;18338;53.240;8.798;2022-08-02T14:56:55;6.90;;;4.93;;
31764;SDS011;18338;53.240;8.798;2022-08-02T14:59:28;4.60;;;4.20;;
31764;SDS011;18338;53.240;8.798;2022-08-02T15:01:55;3.95;;;3.05;;
31764;SDS011;18338;53.240;8.798;2022-08-02T15:04:22;2.05;;;1.50;;
31764;SDS011;18338;53.240;8.798;2022-08-02T15:06:49;1.60;;;1.50;;
31764;SDS011;18338;53.240;8.798;2022-08-02T15:09:16;2.22;;;1.65;;
31764;SDS011;18338;53.240;8.798;2022-08-02T15:11:43;3.50;;;1.58;;
31764;SDS011;18338;53.240;8.798;2022-08-02T15:14:14;2.00;;;1.80;;
31764;SDS011;18338;53.240;8.798;2022-08-02T15:16:50;2.75;;;1.80;;
31764;SDS011;18338;53.240;8.798;2022-08-02T15:19:27;3.35;;;1.52;;
31764;SDS011;18338;53.240;8.798;2022-08-02T15:22:15;1.45;;;1.30;;
31764;SDS011;18338;53.240;8.798;2022-08-02T15:24:45;1.92;;;1.77;;
31764;SDS011;18338;53.240;8.798;2022-08-02T15:27:12;1.75;;;1.60;;
31764;SDS011;18338;53.240;8.798;2022-08-02T15:29:40;4.45;;;1.95;;
31764;SDS011;18338;53.240;8.798;2022-08-02T15:32:08;2.83;;;2.25;;
31764;SDS011;18338;53.240;8.798;2022-08-02T15:34:36;1.85;;;1.67;;
31764;SDS011;18338;53.240;8.798;2022-08-02T15:37:02;3.63;;;1.60;;
31764;SDS011;18338;53.240;8.798;2022-08-02T15:39:29;5.72;;;2.20;;